createdAt,value
2017-11-07T00:00:45.814Z,817.70
2017-11-07T00:01:46.384Z,780.10
2017-11-07T00:02:45.946Z,851.60
2017-11-07T00:03:46.150Z,745.80
2017-11-07T00:04:45.829Z,709.80
2017-11-07T00:05:46.178Z,855.70
2017-11-07T00:06:45.178Z,855.80
2017-11-07T00:07:46.100Z,734.40
2017-11-07T00:08:46.395Z,641.90
2017-11-07T00:09:45.782Z,917.90
2017-11-07T00:10:46.074Z,653.70
2017-11-07T00:11:45.013Z,825.20
2017-11-07T00:12:46.508Z,832.30
2017-11-07T00:13:46.028Z,895.80
2017-11-07T00:14:46.580Z,963.10
2017-11-07T00:15:45.479Z,967.30
2017-11-07T00:16:45.425Z,1019.30
2017-11-07T00:17:45.406Z,951.20
2017-11-07T00:18:45.965Z,868.00
2017-11-07T00:19:46.260Z,1026.50
2017-11-07T00:20:45.175Z,799.50
2017-11-07T00:21:45.163Z,828.80
2017-11-07T00:22:46.527Z,650.60
2017-11-07T00:23:45.862Z,932.60
2017-11-07T00:24:46.121Z,1014.20
2017-11-07T00:25:45.157Z,1081.90
2017-11-07T00:26:45.573Z,793.60
2017-11-07T00:27:45.729Z,967.10
2017-11-07T00:28:46.270Z,1129.70
2017-11-07T00:29:45.785Z,1039.20
2017-11-07T00:30:46.616Z,939.60
2017-11-07T00:31:46.560Z,1041.40
2017-11-07T00:32:45.306Z,791.40
2017-11-07T00:33:45.826Z,1122.80
2017-11-07T00:34:45.778Z,995.60
2017-11-07T00:35:46.195Z,1009.10
2017-11-07T00:36:46.221Z,1264.20
2017-11-07T00:37:45.099Z,999.10
2017-11-07T00:38:45.988Z,927.20
2017-11-07T00:39:45.835Z,1164.10
2017-11-07T00:40:45.639Z,1040.00
2017-11-07T00:41:45.710Z,1237.20
2017-11-07T00:42:46.660Z,1157.80
2017-11-07T00:43:45.490Z,1113.40
2017-11-07T00:44:45.651Z,1002.70
2017-11-07T00:45:46.262Z,1234.50
2017-11-07T00:46:45.301Z,1288.30
2017-11-07T00:47:45.723Z,1240.40
2017-11-07T00:48:46.243Z,1101.00
2017-11-07T00:49:45.459Z,1316.80
2017-11-07T00:50:45.751Z,989.10
2017-11-07T00:51:45.796Z,740.80
2017-11-07T00:52:45.094Z,918.70
2017-11-07T00:53:46.880Z,1060.00
2017-11-07T00:54:46.218Z,908.40
2017-11-07T00:55:45.413Z,996.40
2017-11-07T00:56:46.118Z,1128.20
2017-11-07T00:57:46.030Z,1135.00
2017-11-07T00:58:46.669Z,1086.70
2017-11-07T00:59:45.643Z,998.90
2017-11-07T01:00:46.488Z,1143.10
2017-11-07T01:01:46.112Z,1105.00
2017-11-07T01:02:46.125Z,1017.30
2017-11-07T01:03:46.817Z,1334.50
2017-11-07T01:04:45.717Z,1309.20
2017-11-07T01:05:46.051Z,1143.50
2017-11-07T01:06:45.539Z,1313.40
2017-11-07T01:07:45.649Z,1140.70
2017-11-07T01:08:46.145Z,919.80
2017-11-07T01:09:45.352Z,1036.10
2017-11-07T01:10:45.277Z,757.80
2017-11-07T01:11:45.655Z,1118.20
2017-11-07T01:12:46.203Z,1228.50
2017-11-07T01:13:45.925Z,1182.10
2017-11-07T01:14:46.410Z,1281.60
2017-11-07T01:15:45.380Z,1070.00
2017-11-07T01:16:45.759Z,1217.30
2017-11-07T01:17:46.197Z,1025.80
2017-11-07T01:18:45.843Z,1244.30
2017-11-07T01:19:46.966Z,1133.10
2017-11-07T01:20:45.815Z,896.10
2017-11-07T01:21:45.739Z,1071.60
2017-11-07T01:22:45.798Z,1143.50
2017-11-07T01:23:46.661Z,1167.90
2017-11-07T01:24:45.887Z,1099.00
2017-11-07T01:25:46.593Z,815.90
2017-11-07T01:26:47.609Z,964.90
2017-11-07T01:27:45.894Z,940.10
2017-11-07T01:28:46.334Z,1040.60
2017-11-07T01:29:45.124Z,814.20
2017-11-07T01:30:46.713Z,825.50
2017-11-07T01:31:45.513Z,957.10
2017-11-07T01:32:45.149Z,1073.30
2017-11-07T01:33:45.044Z,830.60
2017-11-07T01:34:46.543Z,858.80
2017-11-07T01:35:45.027Z,734.80
2017-11-07T01:36:46.416Z,814.00
2017-11-07T01:37:45.233Z,829.80
2017-11-07T01:38:46.328Z,868.20
2017-11-07T01:39:45.637Z,860.70
2017-11-07T01:40:45.597Z,887.20
2017-11-07T01:41:45.535Z,775.60
2017-11-07T01:42:45.957Z,889.00
2017-11-07T01:43:45.529Z,977.70
2017-11-07T01:44:45.606Z,1050.00
2017-11-07T01:45:46.048Z,1149.20
2017-11-07T01:46:46.296Z,1065.00
2017-11-07T01:47:45.261Z,958.60
2017-11-07T01:48:46.230Z,909.30
2017-11-07T01:49:45.758Z,1164.30
2017-11-07T01:50:45.607Z,1091.80
2017-11-07T01:51:46.577Z,1059.30
2017-11-07T01:52:45.909Z,1128.40
2017-11-07T01:53:46.192Z,833.40
2017-11-07T01:54:45.140Z,918.80
2017-11-07T01:55:45.407Z,917.50
2017-11-07T01:56:45.772Z,800.60
2017-11-07T01:57:45.585Z,958.50
2017-11-07T01:58:45.631Z,892.60
2017-11-07T01:59:45.800Z,760.50
2017-11-07T02:00:45.921Z,908.00
2017-11-07T02:01:45.764Z,703.80
2017-11-07T02:02:45.719Z,635.30
2017-11-07T02:03:45.536Z,803.00
2017-11-07T02:04:45.881Z,754.70
2017-11-07T02:05:45.493Z,849.80
2017-11-07T02:06:45.583Z,895.10
2017-11-07T02:07:45.744Z,927.20
2017-11-07T02:08:46.305Z,746.80
2017-11-07T02:09:45.903Z,957.00
2017-11-07T02:10:45.717Z,1108.00
2017-11-07T02:11:45.658Z,1107.80
2017-11-07T02:12:46.260Z,832.00
2017-11-07T02:13:45.186Z,1051.00
2017-11-07T02:14:45.103Z,769.20
2017-11-07T02:15:46.227Z,844.60
2017-11-07T02:16:45.978Z,888.20
2017-11-07T02:17:45.843Z,776.60
2017-11-07T02:18:45.883Z,600.00
2017-11-07T02:19:46.246Z,852.70
2017-11-07T02:20:45.549Z,793.60
2017-11-07T02:21:45.840Z,727.10
2017-11-07T02:22:45.735Z,894.50
2017-11-07T02:23:45.776Z,943.20
2017-11-07T02:24:45.102Z,822.00
2017-11-07T02:25:45.697Z,1033.30
2017-11-07T02:26:46.295Z,1057.00
2017-11-07T02:27:45.385Z,1030.20
2017-11-07T02:28:45.744Z,999.40
2017-11-07T02:29:45.221Z,963.20
2017-11-07T02:30:45.656Z,990.40
2017-11-07T02:31:45.690Z,777.10
2017-11-07T02:32:45.985Z,905.60
2017-11-07T02:33:46.166Z,726.40
2017-11-07T02:34:45.486Z,751.00
2017-11-07T02:35:45.722Z,814.00
2017-11-07T02:36:45.452Z,712.20
2017-11-07T02:37:46.094Z,876.80
2017-11-07T02:38:46.144Z,942.50
2017-11-07T02:39:45.816Z,1037.20
2017-11-07T02:40:46.448Z,869.00
2017-11-07T02:41:45.254Z,914.00
2017-11-07T02:42:45.610Z,825.90
2017-11-07T02:43:45.906Z,777.10
2017-11-07T02:44:46.281Z,785.20
2017-11-07T02:45:46.253Z,739.00
2017-11-07T02:46:45.748Z,757.30
2017-11-07T02:47:45.617Z,676.60
2017-11-07T02:48:46.108Z,796.30
2017-11-07T02:49:46.095Z,974.80
2017-11-07T02:50:45.555Z,797.50
2017-11-07T02:51:45.883Z,856.80
2017-11-07T02:52:45.855Z,826.90
2017-11-07T02:53:47.081Z,910.90
2017-11-07T02:54:45.478Z,661.80
2017-11-07T02:55:45.431Z,856.60
2017-11-07T02:56:45.567Z,691.50
2017-11-07T02:57:45.777Z,909.20
2017-11-07T02:58:45.980Z,901.40
2017-11-07T02:59:46.531Z,705.10
2017-11-07T03:00:46.007Z,855.20
2017-11-07T03:01:46.098Z,873.90
2017-11-07T03:02:46.707Z,888.40
2017-11-07T03:03:46.077Z,699.90
2017-11-07T03:04:45.079Z,716.50
2017-11-07T03:05:45.580Z,882.10
2017-11-07T03:06:45.260Z,863.30
2017-11-07T03:07:45.263Z,877.70
2017-11-07T03:08:45.354Z,755.30
2017-11-07T03:09:45.227Z,790.80
2017-11-07T03:10:45.511Z,815.60
2017-11-07T03:11:45.949Z,791.00
2017-11-07T03:12:45.899Z,757.00
2017-11-07T03:13:46.608Z,980.50
2017-11-07T03:14:45.247Z,566.40
2017-11-07T03:15:45.939Z,981.60
2017-11-07T03:16:45.891Z,867.10
2017-11-07T03:17:46.228Z,972.20
2017-11-07T03:18:45.185Z,968.50
2017-11-07T03:19:46.275Z,745.20
2017-11-07T03:20:46.361Z,1039.10
2017-11-07T03:21:45.162Z,972.00
2017-11-07T03:22:45.698Z,972.00
2017-11-07T03:23:46.233Z,874.60
2017-11-07T03:24:45.786Z,901.60
2017-11-07T03:25:46.602Z,934.40
2017-11-07T03:26:46.004Z,1054.70
2017-11-07T03:27:46.133Z,954.20
2017-11-07T03:28:45.657Z,826.50
2017-11-07T03:29:45.354Z,780.10
2017-11-07T03:30:46.258Z,718.80
2017-11-07T03:31:46.246Z,839.30
2017-11-07T03:32:45.087Z,626.90
2017-11-07T03:33:45.059Z,889.70
2017-11-07T03:34:45.200Z,962.80
2017-11-07T03:35:45.687Z,824.30
2017-11-07T03:36:46.127Z,818.70
2017-11-07T03:37:45.014Z,841.10
2017-11-07T03:38:45.046Z,751.60
2017-11-07T03:39:45.850Z,809.50
2017-11-07T03:40:45.992Z,910.40
2017-11-07T03:41:46.018Z,869.10
2017-11-07T03:42:45.839Z,1084.30
2017-11-07T03:43:45.883Z,728.70
2017-11-07T03:44:45.755Z,801.80
2017-11-07T03:45:45.384Z,771.50
2017-11-07T03:46:45.231Z,721.60
2017-11-07T03:47:45.860Z,753.20
2017-11-07T03:48:46.139Z,1045.00
2017-11-07T03:49:45.121Z,738.70
2017-11-07T03:50:45.593Z,713.70
2017-11-07T03:51:45.938Z,831.60
2017-11-07T03:52:46.490Z,872.70
2017-11-07T03:53:45.503Z,939.00
2017-11-07T03:54:45.629Z,732.60
2017-11-07T03:55:45.232Z,704.00
2017-11-07T03:56:45.945Z,801.70
2017-11-07T03:57:46.638Z,1036.70
2017-11-07T03:58:46.047Z,1088.10
2017-11-07T03:59:46.176Z,725.90
2017-11-07T04:00:45.616Z,860.00
2017-11-07T04:01:45.780Z,800.20
2017-11-07T04:02:46.518Z,875.30
2017-11-07T04:03:45.933Z,776.50
2017-11-07T04:04:45.741Z,861.20
2017-11-07T04:05:45.463Z,765.60
2017-11-07T04:06:45.320Z,948.90
2017-11-07T04:07:45.686Z,997.00
2017-11-07T04:08:46.349Z,632.60
2017-11-07T04:09:45.572Z,856.90
2017-11-07T04:10:45.685Z,693.80
2017-11-07T04:11:45.993Z,626.70
2017-11-07T04:12:45.797Z,715.90
2017-11-07T04:13:45.495Z,631.50
2017-11-07T04:14:45.863Z,769.10
2017-11-07T04:15:45.548Z,699.70
2017-11-07T04:16:45.679Z,759.90
2017-11-07T04:17:45.497Z,692.30
2017-11-07T04:18:45.159Z,665.70
2017-11-07T04:19:46.216Z,680.00
2017-11-07T04:20:45.359Z,578.40
2017-11-07T04:21:45.354Z,628.40
2017-11-07T04:22:45.069Z,723.90
2017-11-07T04:23:45.857Z,737.30
2017-11-07T04:24:45.660Z,690.60
2017-11-07T04:25:45.954Z,732.10
2017-11-07T04:26:45.817Z,813.40
2017-11-07T04:27:45.758Z,974.60
2017-11-07T04:28:45.528Z,808.90
2017-11-07T04:29:45.221Z,643.50
2017-11-07T04:30:45.019Z,581.00
2017-11-07T04:31:46.167Z,566.60
2017-11-07T04:32:46.411Z,723.70
2017-11-07T04:33:45.529Z,751.20
2017-11-07T04:34:45.247Z,738.30
2017-11-07T04:35:45.181Z,854.60
2017-11-07T04:36:46.341Z,871.10
2017-11-07T04:37:45.499Z,840.50
2017-11-07T04:38:45.865Z,941.40
2017-11-07T04:39:46.195Z,753.30
2017-11-07T04:40:46.417Z,958.50
2017-11-07T04:41:45.397Z,919.70
2017-11-07T04:42:45.503Z,1024.10
2017-11-07T04:43:45.730Z,1006.20
2017-11-07T04:44:46.000Z,994.00
2017-11-07T04:45:46.106Z,978.40
2017-11-07T04:46:45.759Z,897.20
2017-11-07T04:47:45.731Z,935.90
2017-11-07T04:48:45.990Z,1071.10
2017-11-07T04:49:45.700Z,942.80
2017-11-07T04:50:45.464Z,810.40
2017-11-07T04:51:45.749Z,805.80
2017-11-07T04:52:46.336Z,815.60
2017-11-07T04:53:46.240Z,704.50
2017-11-07T04:54:44.956Z,809.40
2017-11-07T04:55:46.090Z,773.70
2017-11-07T04:56:45.859Z,691.70
2017-11-07T04:57:45.878Z,679.10
2017-11-07T04:58:45.585Z,587.80
2017-11-07T04:59:45.643Z,606.60
2017-11-07T05:00:45.782Z,558.60
2017-11-07T05:01:46.250Z,701.30
2017-11-07T05:02:45.213Z,729.10
2017-11-07T05:03:46.484Z,789.00
2017-11-07T05:04:45.202Z,638.20
2017-11-07T05:05:46.448Z,571.70
2017-11-07T05:06:45.191Z,560.00
2017-11-07T05:07:45.828Z,468.70
2017-11-07T05:08:46.158Z,654.60
2017-11-07T05:09:45.027Z,482.00
2017-11-07T05:10:45.795Z,611.70
2017-11-07T05:11:45.925Z,486.40
2017-11-07T05:12:46.078Z,516.60
2017-11-07T05:13:46.355Z,543.10
2017-11-07T05:14:45.116Z,515.80
2017-11-07T05:15:46.046Z,629.90
2017-11-07T05:16:46.136Z,487.90
2017-11-07T05:17:46.370Z,532.70
2017-11-07T05:18:45.008Z,521.70
2017-11-07T05:19:45.649Z,655.20
2017-11-07T05:20:45.627Z,848.10
2017-11-07T05:21:45.980Z,776.70
2017-11-07T05:22:45.296Z,614.60
2017-11-07T05:23:45.357Z,639.80
2017-11-07T05:24:45.617Z,627.70
2017-11-07T05:25:46.203Z,782.90
2017-11-07T05:26:45.999Z,779.50
2017-11-07T05:27:45.815Z,472.50
2017-11-07T05:28:45.917Z,649.90
2017-11-07T05:29:46.113Z,611.50
2017-11-07T05:30:45.442Z,660.30
2017-11-07T05:31:46.051Z,647.10
2017-11-07T05:32:45.885Z,424.60
2017-11-07T05:33:46.039Z,664.00
2017-11-07T05:34:46.318Z,455.80
2017-11-07T05:35:45.116Z,567.20
2017-11-07T05:36:46.498Z,487.00
2017-11-07T05:37:45.994Z,549.90
2017-11-07T05:38:45.614Z,494.60
2017-11-07T05:39:45.378Z,528.80
2017-11-07T05:40:45.224Z,399.30
2017-11-07T05:41:45.338Z,490.40
2017-11-07T05:42:45.884Z,463.50
2017-11-07T05:43:45.864Z,504.10
2017-11-07T05:44:45.967Z,490.20
2017-11-07T05:45:45.555Z,481.90
2017-11-07T05:46:45.325Z,476.80
2017-11-07T05:47:45.801Z,563.90
2017-11-07T05:48:46.074Z,487.60
2017-11-07T05:49:45.959Z,534.70
2017-11-07T05:50:45.683Z,448.10
2017-11-07T05:51:45.988Z,540.40
2017-11-07T05:52:46.583Z,436.80
2017-11-07T05:53:45.472Z,500.60
2017-11-07T05:54:57.456Z,429.90
2017-11-07T05:55:45.447Z,478.00
2017-11-07T05:56:45.832Z,376.70
2017-11-07T05:57:46.082Z,591.90
2017-11-07T05:58:45.133Z,631.60
2017-11-07T05:59:45.892Z,502.70
2017-11-07T06:00:45.701Z,480.30
2017-11-07T06:01:45.833Z,628.20
2017-11-07T06:02:45.550Z,547.60
2017-11-07T06:03:45.672Z,655.40
2017-11-07T06:04:46.032Z,652.80
2017-11-07T06:05:45.032Z,662.20
2017-11-07T06:06:46.067Z,646.80
2017-11-07T06:07:46.232Z,684.80
2017-11-07T06:08:45.256Z,600.50
2017-11-07T06:09:47.051Z,702.90
2017-11-07T06:10:45.293Z,664.30
2017-11-07T06:11:45.031Z,618.90
2017-11-07T06:12:45.805Z,592.60
2017-11-07T06:13:45.697Z,621.30
2017-11-07T06:14:45.951Z,656.30
2017-11-07T06:15:46.022Z,697.30
2017-11-07T06:16:46.167Z,652.30
2017-11-07T06:17:46.394Z,571.30
2017-11-07T06:18:45.693Z,633.70
2017-11-07T06:19:45.939Z,569.60
2017-11-07T06:20:46.289Z,397.10
2017-11-07T06:21:45.978Z,492.70
2017-11-07T06:22:46.277Z,523.30
2017-11-07T06:23:45.891Z,521.60
2017-11-07T06:24:46.202Z,420.10
2017-11-07T06:25:46.372Z,493.30
2017-11-07T06:26:46.024Z,448.30
2017-11-07T06:27:45.816Z,436.10
2017-11-07T06:28:46.458Z,491.00
2017-11-07T06:29:45.630Z,448.10
2017-11-07T06:30:46.292Z,509.50
2017-11-07T06:31:46.268Z,565.70
2017-11-07T06:32:46.044Z,477.00
2017-11-07T06:33:45.917Z,470.90
2017-11-07T06:34:45.880Z,485.50
2017-11-07T06:35:45.746Z,412.30
2017-11-07T06:36:45.727Z,512.90
2017-11-07T06:37:45.776Z,458.40
2017-11-07T06:38:45.802Z,457.30
2017-11-07T06:39:45.499Z,434.20
2017-11-07T06:40:45.938Z,405.70
2017-11-07T06:41:45.705Z,426.60
2017-11-07T06:42:45.769Z,427.00
2017-11-07T06:43:45.707Z,628.10
2017-11-07T06:44:45.604Z,458.90
2017-11-07T06:45:45.459Z,503.40
2017-11-07T06:46:45.786Z,432.20
2017-11-07T06:47:45.655Z,433.90
2017-11-07T06:48:46.742Z,613.60
2017-11-07T06:49:45.628Z,490.90
2017-11-07T06:50:45.398Z,511.40
2017-11-07T06:51:45.213Z,539.90
2017-11-07T06:52:45.169Z,630.40
2017-11-07T06:53:45.407Z,449.40
2017-11-07T06:54:46.304Z,543.60
2017-11-07T06:55:45.137Z,493.20
2017-11-07T06:56:45.169Z,672.50
2017-11-07T06:57:45.473Z,530.00
2017-11-07T06:58:45.289Z,572.40
2017-11-07T06:59:46.138Z,658.00
2017-11-07T07:00:45.873Z,595.90
2017-11-07T07:01:46.207Z,586.40
2017-11-07T07:02:45.233Z,500.80
2017-11-07T07:03:45.923Z,502.80
2017-11-07T07:04:46.106Z,460.30
2017-11-07T07:05:46.549Z,393.50
2017-11-07T07:06:46.188Z,514.30
2017-11-07T07:07:46.688Z,476.10
2017-11-07T07:08:45.718Z,379.60
2017-11-07T07:09:46.359Z,416.50
2017-11-07T07:10:46.265Z,416.60
2017-11-07T07:11:45.074Z,391.50
2017-11-07T07:12:46.503Z,441.50
2017-11-07T07:13:46.561Z,442.50
2017-11-07T07:14:45.562Z,325.10
2017-11-07T07:15:45.462Z,329.50
2017-11-07T07:16:45.693Z,423.00
2017-11-07T07:17:45.668Z,494.60
2017-11-07T07:18:45.877Z,417.10
2017-11-07T07:19:45.688Z,461.50
2017-11-07T07:20:45.939Z,548.80
2017-11-07T07:21:46.650Z,505.50
2017-11-07T07:22:46.088Z,417.80
2017-11-07T07:23:46.651Z,458.30
2017-11-07T07:24:46.079Z,410.00
2017-11-07T07:25:46.637Z,407.00
2017-11-07T07:26:46.353Z,375.30
2017-11-07T07:27:45.704Z,416.90
2017-11-07T07:28:45.723Z,352.10
2017-11-07T07:29:45.862Z,450.20
2017-11-07T07:30:46.400Z,381.20
2017-11-07T07:31:45.550Z,325.90
2017-11-07T07:32:46.207Z,383.80
2017-11-07T07:33:46.588Z,325.20
2017-11-07T07:34:46.051Z,292.50
2017-11-07T07:35:46.356Z,403.90
2017-11-07T07:36:45.880Z,309.40
2017-11-07T07:37:46.829Z,262.90
2017-11-07T07:38:45.565Z,326.00
2017-11-07T07:39:45.684Z,306.60
2017-11-07T07:40:45.649Z,332.50
2017-11-07T07:41:45.995Z,310.20
2017-11-07T07:42:46.521Z,276.10
2017-11-07T07:43:46.075Z,323.10
2017-11-07T07:44:46.190Z,318.50
2017-11-07T07:45:45.272Z,294.60
2017-11-07T07:46:45.414Z,326.70
2017-11-07T07:47:45.415Z,316.80
2017-11-07T07:48:46.094Z,328.70
2017-11-07T07:49:45.387Z,298.60
2017-11-07T07:50:46.137Z,296.60
2017-11-07T07:51:46.247Z,325.50
2017-11-07T07:52:45.973Z,310.50
2017-11-07T07:53:46.616Z,319.70
2017-11-07T07:54:45.791Z,333.50
2017-11-07T07:55:46.119Z,336.00
2017-11-07T07:56:46.128Z,305.30
2017-11-07T07:57:46.225Z,330.00
2017-11-07T07:58:58.261Z,322.80
2017-11-07T07:59:58.649Z,326.60
2017-11-07T08:00:59.114Z,332.60
2017-11-07T08:01:58.408Z,327.70
2017-11-07T08:02:58.268Z,337.70
2017-11-07T08:03:58.726Z,332.30
2017-11-07T08:04:58.734Z,352.60
2017-11-07T08:05:58.903Z,333.50
2017-11-07T08:06:58.095Z,338.80
2017-11-07T08:07:57.950Z,328.70
2017-11-07T08:08:58.194Z,301.30
2017-11-07T08:09:58.836Z,325.80
2017-11-07T08:10:59.112Z,333.60
2017-11-07T08:11:58.363Z,293.10
2017-11-07T08:12:58.685Z,347.30
2017-11-07T08:13:58.810Z,339.60
2017-11-07T08:14:58.808Z,343.20
2017-11-07T08:15:58.642Z,371.20
2017-11-07T08:16:57.746Z,303.40
2017-11-07T08:17:58.969Z,339.40
2017-11-07T08:18:58.645Z,336.90
2017-11-07T08:19:58.687Z,287.70
2017-11-07T08:20:59.027Z,321.90
2017-11-07T08:21:58.131Z,323.90
2017-11-07T08:22:57.908Z,299.70
2017-11-07T08:23:58.196Z,274.00
2017-11-07T08:24:58.053Z,265.30
2017-11-07T08:25:58.450Z,298.80
2017-11-07T08:26:58.403Z,290.10
2017-11-07T08:27:58.798Z,315.20
2017-11-07T08:28:59.442Z,320.80
2017-11-07T08:29:58.719Z,312.10
2017-11-07T08:30:59.005Z,305.70
2017-11-07T08:31:58.695Z,313.90
2017-11-07T08:32:58.984Z,301.10
2017-11-07T08:33:58.242Z,292.20
2017-11-07T08:34:59.316Z,316.20
2017-11-07T08:35:58.689Z,284.00
2017-11-07T08:36:58.628Z,273.10
2017-11-07T08:37:58.985Z,284.00
2017-11-07T08:38:58.341Z,327.80
2017-11-07T08:39:58.602Z,324.10
2017-11-07T08:40:58.138Z,260.10
2017-11-07T08:41:58.494Z,282.60
2017-11-07T08:42:58.428Z,259.40
2017-11-07T08:43:58.362Z,254.00
2017-11-07T08:44:58.628Z,284.50
2017-11-07T08:45:58.894Z,254.50
2017-11-07T08:46:58.220Z,258.50
2017-11-07T08:47:58.124Z,270.40
2017-11-07T08:48:58.064Z,283.90
2017-11-07T08:49:58.174Z,271.30
2017-11-07T08:50:58.232Z,255.80
2017-11-07T08:51:58.159Z,268.50
2017-11-07T08:52:58.147Z,291.50
2017-11-07T08:53:57.918Z,274.40
2017-11-07T08:54:58.866Z,276.30
2017-11-07T08:55:59.097Z,266.90
2017-11-07T08:56:57.923Z,229.30
2017-11-07T08:57:57.745Z,281.90
2017-11-07T08:58:59.006Z,260.60
2017-11-07T08:59:58.210Z,264.60
2017-11-07T09:00:58.813Z,243.90
2017-11-07T09:01:58.058Z,246.70
2017-11-07T09:02:58.001Z,239.30
2017-11-07T09:03:58.425Z,271.90
2017-11-07T09:04:58.595Z,237.50
2017-11-07T09:05:58.836Z,238.30
2017-11-07T09:06:57.748Z,246.40
2017-11-07T09:07:59.064Z,256.00
2017-11-07T09:08:58.559Z,233.80
2017-11-07T09:09:58.902Z,227.30
2017-11-07T09:10:58.609Z,234.40
2017-11-07T09:11:59.099Z,230.50
2017-11-07T09:12:59.343Z,225.60
2017-11-07T09:13:58.844Z,200.80
2017-11-07T09:14:58.699Z,187.00
2017-11-07T09:15:59.409Z,212.30
2017-11-07T09:16:57.761Z,195.60
2017-11-07T09:17:59.030Z,195.30
2017-11-07T09:18:58.389Z,173.60
2017-11-07T09:19:58.875Z,194.30
2017-11-07T09:20:58.437Z,188.80
2017-11-07T09:21:59.224Z,193.90
2017-11-07T09:22:57.869Z,166.70
2017-11-07T09:23:59.330Z,166.60
2017-11-07T09:24:58.731Z,172.40
2017-11-07T09:25:59.106Z,173.20
2017-11-07T09:26:58.694Z,178.40
2017-11-07T09:27:58.669Z,167.10
2017-11-07T09:28:58.855Z,165.70
2017-11-07T09:29:58.664Z,165.60
2017-11-07T09:30:58.620Z,161.20
2017-11-07T09:31:59.277Z,177.80
2017-11-07T09:32:58.230Z,181.90
2017-11-07T09:33:58.159Z,177.90
2017-11-07T09:34:58.290Z,178.00
2017-11-07T09:35:58.285Z,188.80
2017-11-07T09:36:58.716Z,190.40
2017-11-07T09:37:58.948Z,176.00
2017-11-07T09:38:58.335Z,173.60
2017-11-07T09:39:58.665Z,184.90
2017-11-07T09:40:58.967Z,168.80
2017-11-07T09:41:58.381Z,168.50
2017-11-07T09:42:58.878Z,177.30
2017-11-07T09:43:59.621Z,180.90
2017-11-07T09:44:58.530Z,161.80
2017-11-07T09:45:58.487Z,168.10
2017-11-07T09:46:58.334Z,159.80
2017-11-07T09:47:58.355Z,153.40
2017-11-07T09:48:58.432Z,166.30
2017-11-07T09:49:59.006Z,155.50
2017-11-07T09:50:58.235Z,164.20
2017-11-07T09:51:58.211Z,162.40
2017-11-07T09:52:58.252Z,146.50
2017-11-07T09:53:58.426Z,146.00
2017-11-07T09:54:58.935Z,146.70
2017-11-07T09:55:59.061Z,163.50
2017-11-07T09:56:58.174Z,141.10
2017-11-07T09:57:59.040Z,131.00
2017-11-07T09:58:57.887Z,129.20
2017-11-07T09:59:59.547Z,126.50
2017-11-07T10:00:58.559Z,142.00
2017-11-07T10:01:59.472Z,132.60
2017-11-07T10:02:58.619Z,118.80
2017-11-07T10:03:58.678Z,126.90
2017-11-07T10:04:58.307Z,121.80
2017-11-07T10:05:59.357Z,112.70
2017-11-07T10:06:58.541Z,102.00
2017-11-07T10:07:57.908Z,122.10
2017-11-07T10:08:58.309Z,115.70
2017-11-07T10:09:58.637Z,116.50
2017-11-07T10:10:58.560Z,112.10
2017-11-07T10:11:59.076Z,111.40
2017-11-07T10:12:58.081Z,124.70
2017-11-07T10:13:58.469Z,122.10
2017-11-07T10:14:58.492Z,110.30
2017-11-07T10:15:58.843Z,108.30
2017-11-07T10:16:58.316Z,100.20
2017-11-07T10:17:58.725Z,86.40
2017-11-07T10:18:58.614Z,90.20
2017-11-07T10:19:58.048Z,100.90
2017-11-07T10:20:58.027Z,92.10
2017-11-07T10:21:58.334Z,95.00
2017-11-07T10:22:58.915Z,90.80
2017-11-07T10:23:57.946Z,98.80
2017-11-07T10:24:58.404Z,96.30
2017-11-07T10:25:58.780Z,111.20
2017-11-07T10:26:58.773Z,104.70
2017-11-07T10:27:58.890Z,96.10
2017-11-07T10:28:58.020Z,102.50
2017-11-07T10:29:58.862Z,97.90
2017-11-07T10:30:58.348Z,97.80
2017-11-07T10:31:58.307Z,98.40
2017-11-07T10:32:59.088Z,86.60
2017-11-07T10:33:59.291Z,89.20
2017-11-07T10:34:59.759Z,98.80
2017-11-07T10:35:58.095Z,95.50
2017-11-07T10:36:58.394Z,88.20
2017-11-07T10:37:58.804Z,81.10
2017-11-07T10:38:59.041Z,80.40
2017-11-07T10:39:58.012Z,72.70
2017-11-07T10:40:58.594Z,86.10
2017-11-07T10:41:58.740Z,74.60
2017-11-07T10:42:59.455Z,67.70
2017-11-07T10:43:58.418Z,70.40
2017-11-07T10:44:58.864Z,65.90
2017-11-07T10:45:59.325Z,62.50
2017-11-07T10:46:59.046Z,61.80
2017-11-07T10:47:58.155Z,58.70
2017-11-07T10:48:59.205Z,60.40
2017-11-07T10:49:58.684Z,55.00
2017-11-07T10:50:58.494Z,64.50
2017-11-07T10:51:58.668Z,56.10
2017-11-07T10:52:58.869Z,58.80
2017-11-07T10:53:58.784Z,60.60
2017-11-07T10:54:59.300Z,49.90
2017-11-07T10:55:58.465Z,45.80
2017-11-07T10:56:59.077Z,37.40
2017-11-07T10:57:58.623Z,36.40
2017-11-07T10:58:59.341Z,38.20
2017-11-07T10:59:59.061Z,40.10
2017-11-07T11:00:59.099Z,44.30
2017-11-07T11:01:59.250Z,39.30
2017-11-07T11:02:58.249Z,39.60
2017-11-07T11:03:58.296Z,41.40
2017-11-07T11:04:59.054Z,38.70
2017-11-07T11:05:58.925Z,38.60
2017-11-07T11:06:58.460Z,37.10
2017-11-07T11:07:59.317Z,35.20
2017-11-07T11:08:58.775Z,36.90
2017-11-07T11:09:57.944Z,32.10
2017-11-07T11:10:58.633Z,31.80
2017-11-07T11:11:58.704Z,32.90
2017-11-07T11:12:58.836Z,30.10
2017-11-07T11:13:58.239Z,30.60
2017-11-07T11:14:58.831Z,27.80
2017-11-07T11:15:58.870Z,29.60
2017-11-07T11:16:57.899Z,25.70
2017-11-07T11:17:57.867Z,28.40
2017-11-07T11:18:58.245Z,27.70
2017-11-07T11:19:58.749Z,28.90
2017-11-07T11:20:58.810Z,25.00
2017-11-07T11:21:58.491Z,25.00
2017-11-07T11:22:58.484Z,25.00
2017-11-07T11:23:58.467Z,22.30
2017-11-07T11:24:58.503Z,25.40
2017-11-07T11:25:59.082Z,24.40
2017-11-07T11:26:58.562Z,22.50
2017-11-07T11:27:58.982Z,22.40
2017-11-07T11:28:58.249Z,24.00
2017-11-07T11:29:58.538Z,20.70
2017-11-07T11:30:58.567Z,22.90
2017-11-07T11:31:59.381Z,17.20
2017-11-07T11:32:58.623Z,21.80
2017-11-07T11:33:59.008Z,21.20
2017-11-07T11:34:58.068Z,18.60
2017-11-07T11:35:58.005Z,19.20
2017-11-07T11:36:58.742Z,19.60
2017-11-07T11:37:59.630Z,19.50
2017-11-07T11:38:58.320Z,19.50
2017-11-07T11:39:59.016Z,21.60
2017-11-07T11:40:58.156Z,20.00
2017-11-07T11:41:58.604Z,16.40
2017-11-07T11:42:58.246Z,17.50
2017-11-07T11:43:59.067Z,16.00
2017-11-07T11:44:58.578Z,18.50
2017-11-07T11:45:58.976Z,19.60
2017-11-07T11:46:57.869Z,17.70
2017-11-07T11:47:58.514Z,19.40
2017-11-07T11:48:59.052Z,18.10
2017-11-07T11:49:58.162Z,15.80
2017-11-07T11:50:58.998Z,17.40
2017-11-07T11:51:58.098Z,15.80
2017-11-07T11:52:58.690Z,15.60
2017-11-07T11:53:58.310Z,17.60
2017-11-07T11:54:58.598Z,16.00
2017-11-07T11:55:57.844Z,14.40
2017-11-07T11:56:58.872Z,18.10
2017-11-07T11:57:57.867Z,17.10
2017-11-07T11:58:58.819Z,21.00
2017-11-07T11:59:59.587Z,17.60
2017-11-07T12:00:58.967Z,17.40
2017-11-07T12:01:58.002Z,17.80
2017-11-07T12:02:58.368Z,17.70
2017-11-07T12:03:58.483Z,18.40
2017-11-07T12:04:58.608Z,14.90
2017-11-07T12:05:59.612Z,17.60
2017-11-07T12:06:58.999Z,16.60
2017-11-07T12:07:58.454Z,17.60
2017-11-07T12:08:58.612Z,16.50
2017-11-07T12:09:58.667Z,15.00
2017-11-07T12:10:58.629Z,15.90
2017-11-07T12:11:59.452Z,17.10
2017-11-07T12:12:58.576Z,16.80
2017-11-07T12:13:59.160Z,17.50
2017-11-07T12:14:59.377Z,20.40
2017-11-07T12:15:58.713Z,16.70
2017-11-07T12:16:58.778Z,15.50
2017-11-07T12:17:59.104Z,16.90
2017-11-07T12:18:58.034Z,22.80
2017-11-07T12:19:58.523Z,17.40
2017-11-07T12:20:58.515Z,14.50
2017-11-07T12:21:58.721Z,14.20
2017-11-07T12:22:58.787Z,15.70
2017-11-07T12:23:59.580Z,15.90
2017-11-07T12:24:59.052Z,17.00
2017-11-07T12:25:57.981Z,15.80
2017-11-07T12:26:58.554Z,16.70
2017-11-07T12:27:58.551Z,17.70
2017-11-07T12:28:58.989Z,17.30
2017-11-07T12:29:59.078Z,15.10
2017-11-07T12:30:58.039Z,14.70